createdAt,value
2023-03-27T00:00:50.929Z,82222.94
2023-03-27T00:03:53.803Z,82222.75
2023-03-27T00:06:56.381Z,82233.91
2023-03-27T00:10:02.125Z,82214.22
2023-03-27T00:13:06.800Z,82214.88
2023-03-27T00:16:09.951Z,82216.47
2023-03-27T00:19:12.512Z,82212.56
2023-03-27T00:22:15.770Z,82210.16
2023-03-27T00:25:18.725Z,82208.75
2023-03-27T00:28:21.804Z,82204.63
2023-03-27T00:31:24.210Z,82194.31
2023-03-27T00:34:27.233Z,82191.16
2023-03-27T00:37:29.583Z,82191.28
2023-03-27T00:40:32.794Z,82191.22
2023-03-27T00:43:36.483Z,82192.03
2023-03-27T00:46:44.894Z,82190.44
2023-03-27T00:49:49.627Z,82186.47
2023-03-27T00:52:57.065Z,82181.87
2023-03-27T00:56:03.191Z,82219.97
2023-03-27T00:59:15.604Z,82248.47
2023-03-27T01:02:18.932Z,82241.28
2023-03-27T01:05:22.237Z,82229.56
2023-03-27T01:08:27.284Z,82220.69
2023-03-27T01:11:43.575Z,82213.56
2023-03-27T01:15:10.850Z,82205.66
2023-03-27T01:18:33.117Z,82188.25
2023-03-27T01:21:41.480Z,82196.22
2023-03-27T01:25:22.026Z,82205.81
2023-03-27T01:28:54.865Z,82195.41
2023-03-27T01:32:11.162Z,82201.00
2023-03-27T01:35:27.847Z,82212.06
2023-03-27T01:39:06.708Z,82214.53
2023-03-27T01:42:22.634Z,82228.03
2023-03-27T01:45:34.649Z,82228.09
2023-03-27T01:48:43.430Z,82232.78
2023-03-27T01:51:54.171Z,82224.84
2023-03-27T01:55:05.234Z,82218.63
2023-03-27T01:58:15.946Z,82213.06
2023-03-27T02:01:27.327Z,82210.63
2023-03-27T02:04:46.977Z,82208.97
2023-03-27T02:08:05.091Z,82207.41
2023-03-27T02:11:09.192Z,82199.47
2023-03-27T02:14:17.395Z,82199.50
2023-03-27T02:17:22.029Z,82202.75
2023-03-27T02:20:24.523Z,82217.00
2023-03-27T02:23:27.170Z,82229.59
2023-03-27T02:26:30.469Z,82231.22
2023-03-27T02:30:08.453Z,82232.94
2023-03-27T02:33:50.163Z,82236.00
2023-03-27T02:37:42.318Z,82229.72
2023-03-27T02:41:27.233Z,82206.06
2023-03-27T02:44:53.625Z,82202.00
2023-03-27T02:48:08.260Z,82209.19
2023-03-27T02:51:26.639Z,82210.75
2023-03-27T02:54:36.449Z,82193.31
2023-03-27T02:57:39.285Z,82184.75
2023-03-27T03:00:49.091Z,82179.13
2023-03-27T03:04:00.050Z,82177.53
2023-03-27T03:07:06.575Z,82176.75
2023-03-27T03:10:11.747Z,82162.47
2023-03-27T03:13:15.945Z,82177.53
2023-03-27T03:16:18.382Z,82172.78
2023-03-27T03:19:21.843Z,82171.31
2023-03-27T03:22:24.349Z,82173.53
2023-03-27T03:25:27.907Z,82156.97
2023-03-27T03:28:30.399Z,82171.16
2023-03-27T03:31:43.429Z,82166.44
2023-03-27T03:34:49.272Z,82172.75
2023-03-27T03:37:55.252Z,82168.00
2023-03-27T03:40:59.271Z,82164.84
2023-03-27T03:44:02.243Z,82158.56
2023-03-27T03:47:04.857Z,82174.38
2023-03-27T03:50:08.007Z,82179.13
2023-03-27T03:53:11.104Z,82179.13
2023-03-27T03:56:14.037Z,82162.53
2023-03-27T03:59:16.467Z,82172.81
2023-03-27T04:02:31.532Z,82168.84
2023-03-27T04:05:36.272Z,82175.25
2023-03-27T04:08:39.468Z,82168.19
2023-03-27T04:11:42.707Z,82168.09
2023-03-27T04:14:45.818Z,82168.09
2023-03-27T04:17:50.905Z,82175.19
2023-03-27T04:20:54.380Z,82184.72
2023-03-27T04:24:03.002Z,82177.59
2023-03-27T04:27:06.070Z,82180.06
2023-03-27T04:30:14.295Z,82182.34
2023-03-27T04:33:19.836Z,82178.41
2023-03-27T04:36:25.777Z,82183.91
2023-03-27T04:39:29.311Z,82187.09
2023-03-27T04:42:32.272Z,82188.69
2023-03-27T04:45:34.940Z,82190.28
2023-03-27T04:48:40.305Z,82190.28
2023-03-27T04:51:46.921Z,82190.38
2023-03-27T04:54:49.868Z,82192.03
2023-03-27T04:57:53.777Z,82195.03
2023-03-27T05:00:57.636Z,82193.56
2023-03-27T05:04:05.088Z,82179.22
2023-03-27T05:07:10.234Z,82182.47
2023-03-27T05:10:13.040Z,82174.47
2023-03-27T05:13:15.962Z,82164.28
2023-03-27T05:16:18.614Z,82169.06
2023-03-27T05:19:22.729Z,82172.13
2023-03-27T05:22:27.348Z,82173.78
2023-03-27T05:25:32.766Z,82174.53
2023-03-27T05:28:36.036Z,82172.97
2023-03-27T05:31:40.232Z,82179.31
2023-03-27T05:34:45.953Z,82174.59
2023-03-27T05:37:52.666Z,82171.34
2023-03-27T05:40:56.361Z,82165.00
2023-03-27T05:43:59.772Z,82166.72
2023-03-27T05:47:10.121Z,82169.78
2023-03-27T05:50:14.415Z,82161.88
2023-03-27T05:53:17.025Z,82158.81
2023-03-27T05:56:21.125Z,82161.88
2023-03-27T05:59:24.328Z,82160.28
2023-03-27T06:02:27.860Z,82165.03
2023-03-27T06:05:32.747Z,82163.59
2023-03-27T06:08:36.931Z,82163.47
2023-03-27T06:11:43.319Z,82165.91
2023-03-27T06:14:46.712Z,82166.00
2023-03-27T06:17:49.893Z,82160.34
2023-03-27T06:20:52.871Z,82155.56
2023-03-27T06:23:56.407Z,82154.00
2023-03-27T06:26:58.874Z,82163.53
2023-03-27T06:30:04.666Z,82158.78
2023-03-27T06:33:08.519Z,82157.28
2023-03-27T06:36:12.394Z,82152.41
2023-03-27T06:39:15.305Z,82152.41
2023-03-27T06:42:21.359Z,82147.66
2023-03-27T06:45:27.385Z,82154.00
2023-03-27T06:48:34.516Z,82154.09
2023-03-27T06:51:37.912Z,82153.25
2023-03-27T06:54:41.310Z,82152.41
2023-03-27T06:57:45.068Z,82156.47
2023-03-27T07:00:50.427Z,82149.34
2023-03-27T07:03:59.664Z,82152.53
2023-03-27T07:07:03.807Z,82155.59
2023-03-27T07:10:07.989Z,82149.28
2023-03-27T07:13:11.490Z,82150.84
2023-03-27T07:16:14.126Z,82147.62
2023-03-27T07:19:17.594Z,82150.84
2023-03-27T07:22:20.309Z,82147.62
2023-03-27T07:25:24.502Z,82157.22
2023-03-27T07:28:27.334Z,82146.16
2023-03-27T07:31:51.097Z,82152.38
2023-03-27T07:34:53.417Z,82144.56
2023-03-27T07:37:58.422Z,82147.62
2023-03-27T07:41:06.873Z,82153.97
2023-03-27T07:44:12.107Z,82151.63
2023-03-27T07:47:15.263Z,82158.69
2023-03-27T07:50:21.828Z,82144.53
2023-03-27T07:53:33.844Z,82153.22
2023-03-27T07:56:41.002Z,82146.12
2023-03-27T07:59:45.418Z,82154.78
2023-03-27T08:02:52.326Z,82158.69
2023-03-27T08:05:57.734Z,82158.69
2023-03-27T08:09:02.742Z,82168.22
2023-03-27T08:12:08.135Z,82159.56
2023-03-27T08:15:13.416Z,82166.63
2023-03-27T08:18:16.274Z,82174.56
2023-03-27T08:21:19.030Z,82174.56
2023-03-27T08:24:24.695Z,82176.13
2023-03-27T08:27:28.874Z,82179.31
2023-03-27T08:30:31.893Z,82188.00
2023-03-27T08:33:34.479Z,82186.41
2023-03-27T08:36:38.340Z,82185.62
2023-03-27T08:39:41.916Z,82196.66
2023-03-27T08:42:48.804Z,82195.09
2023-03-27T08:46:25.785Z,82188.87
2023-03-27T08:49:38.495Z,82196.69
2023-03-27T08:52:43.755Z,82196.72
2023-03-27T08:55:51.410Z,82187.19
2023-03-27T08:58:54.803Z,82176.88
2023-03-27T09:02:07.031Z,82183.97
2023-03-27T09:05:30.610Z,82201.44
2023-03-27T09:08:42.277Z,82195.09
2023-03-27T09:11:53.598Z,82212.56
2023-03-27T09:15:13.949Z,82217.25
2023-03-27T09:18:23.597Z,82210.22
2023-03-27T09:21:32.818Z,82206.16
2023-03-27T09:24:43.268Z,82207.72
2023-03-27T09:27:49.768Z,82207.75
2023-03-27T09:30:53.273Z,82209.38
2023-03-27T09:34:00.812Z,82214.13
2023-03-27T09:37:05.440Z,82220.44
2023-03-27T09:40:21.663Z,82218.81
2023-03-27T09:43:36.415Z,82228.28
2023-03-27T09:46:46.287Z,82232.25
2023-03-27T09:49:56.678Z,82226.69
2023-03-27T09:53:14.822Z,82244.13
2023-03-27T09:56:17.809Z,82250.47
2023-03-27T09:59:25.497Z,82256.81
2023-03-27T10:02:30.525Z,82263.09
2023-03-27T10:05:34.592Z,82261.56
2023-03-27T10:08:46.394Z,82263.13
2023-03-27T10:11:59.332Z,82263.13
2023-03-27T10:15:06.942Z,82265.47
2023-03-27T10:18:27.197Z,82276.59
2023-03-27T10:21:38.699Z,82262.38
2023-03-27T10:24:44.164Z,82277.34
2023-03-27T10:27:48.906Z,82269.44
2023-03-27T10:31:05.675Z,82266.28
2023-03-27T10:34:43.510Z,82278.91
2023-03-27T10:37:50.064Z,82275.81
2023-03-27T10:40:56.660Z,82290.78
2023-03-27T10:44:12.324Z,82278.13
2023-03-27T10:47:18.711Z,82296.34
2023-03-27T10:50:53.354Z,82297.88
2023-03-27T10:54:05.979Z,82286.00
2023-03-27T10:57:17.532Z,82285.25
2023-03-27T11:00:43.525Z,82290.75
2023-03-27T11:03:50.250Z,82304.25
2023-03-27T11:06:59.968Z,82321.66
2023-03-27T11:10:45.847Z,82312.25
2023-03-27T11:13:49.831Z,82321.69
2023-03-27T11:16:58.922Z,82323.22
2023-03-27T11:20:08.600Z,82324.91
2023-03-27T11:23:20.089Z,82331.94
2023-03-27T11:26:38.336Z,82335.16
2023-03-27T11:29:53.330Z,82339.84
2023-03-27T11:32:57.072Z,82334.34
2023-03-27T11:36:22.967Z,82332.75
2023-03-27T11:39:42.206Z,82321.62
2023-03-27T11:42:46.729Z,82335.91
2023-03-27T11:46:26.624Z,82347.00
2023-03-27T11:49:45.671Z,82359.66
2023-03-27T11:53:12.298Z,82335.94
2023-03-27T11:56:58.134Z,82334.37
2023-03-27T12:00:11.684Z,82335.19
2023-03-27T12:03:28.986Z,82318.44
2023-03-27T12:06:44.652Z,82316.88
2023-03-27T12:10:04.668Z,82305.78
2023-03-27T12:13:46.228Z,82293.88
2023-03-27T12:16:59.241Z,82278.03
2023-03-27T12:20:22.735Z,82267.72
2023-03-27T12:23:37.804Z,82258.19
2023-03-27T12:27:16.362Z,82248.72
2023-03-27T12:30:37.359Z,82258.19
2023-03-27T12:34:08.206Z,82258.16
2023-03-27T12:37:13.785Z,82252.66
2023-03-27T12:40:28.411Z,82261.34
2023-03-27T12:43:39.645Z,82280.28
2023-03-27T12:47:24.464Z,82279.59
2023-03-27T12:50:32.129Z,82264.47
2023-03-27T12:53:35.067Z,82308.78
2023-03-27T12:56:42.524Z,82302.53
2023-03-27T12:59:48.291Z,82312.00
2023-03-27T13:02:59.964Z,82321.50
2023-03-27T13:06:22.649Z,82335.69
2023-03-27T13:09:42.447Z,82361.03
2023-03-27T13:12:56.841Z,82376.84
2023-03-27T13:16:34.174Z,82381.69
2023-03-27T13:19:58.827Z,82402.34
2023-03-27T13:23:10.734Z,82419.63
2023-03-27T13:26:47.986Z,82432.25
2023-03-27T13:29:52.595Z,82422.78
2023-03-27T13:33:17.681Z,82444.22
2023-03-27T13:36:23.099Z,82458.41
2023-03-27T13:39:40.573Z,82479.75
2023-03-27T13:42:47.008Z,82515.38
2023-03-27T13:45:55.208Z,82531.94
2023-03-27T13:49:37.016Z,82548.59
2023-03-27T13:53:05.139Z,82555.69
2023-03-27T13:56:28.375Z,82565.19
2023-03-27T13:59:54.844Z,82592.84
2023-03-27T14:03:32.000Z,82601.56
2023-03-27T14:07:03.191Z,82614.16
2023-03-27T14:10:43.615Z,82633.16
2023-03-27T14:14:07.218Z,82663.25
2023-03-27T14:17:25.650Z,82686.97
2023-03-27T14:20:34.227Z,82705.91
2023-03-27T14:23:47.959Z,82710.72
2023-03-27T14:26:53.927Z,82703.50
2023-03-27T14:30:09.476Z,82726.47
2023-03-27T14:33:20.296Z,82750.16
2023-03-27T14:36:28.743Z,82764.41
2023-03-27T14:39:37.711Z,82771.50
2023-03-27T14:42:46.836Z,82797.59
2023-03-27T14:45:52.775Z,82797.56
2023-03-27T14:48:59.820Z,82791.25
2023-03-27T14:52:06.454Z,82810.97
2023-03-27T14:55:18.118Z,82818.09
2023-03-27T14:58:24.766Z,82818.09
2023-03-27T15:01:32.216Z,82807.03
2023-03-27T15:04:35.121Z,82804.66
2023-03-27T15:07:42.975Z,82814.91
2023-03-27T15:10:52.371Z,82841.78
2023-03-27T15:14:01.580Z,82862.38
2023-03-27T15:17:07.255Z,82872.59
2023-03-27T15:20:14.527Z,82886.00
2023-03-27T15:23:23.086Z,82901.84
2023-03-27T15:26:31.548Z,82926.31
2023-03-27T15:29:44.507Z,82928.69
2023-03-27T15:32:52.297Z,82957.16
2023-03-27T15:35:57.275Z,82947.62
2023-03-27T15:39:01.468Z,82952.41
2023-03-27T15:42:07.124Z,82957.13
2023-03-27T15:45:10.743Z,82973.69
2023-03-27T15:48:16.142Z,82982.38
2023-03-27T15:51:18.386Z,82979.19
2023-03-27T15:54:34.732Z,82995.00
2023-03-27T15:57:37.193Z,83017.13
2023-03-27T16:00:47.530Z,83029.75
2023-03-27T16:03:51.571Z,83039.22
2023-03-27T16:07:06.316Z,83043.97
2023-03-27T16:10:10.523Z,83056.59
2023-03-27T16:13:26.662Z,83062.12
2023-03-27T16:16:33.328Z,83061.34
2023-03-27T16:19:43.391Z,83073.94
2023-03-27T16:22:46.142Z,83078.72
2023-03-27T16:25:48.613Z,83069.25
2023-03-27T16:28:51.430Z,83083.47
2023-03-27T16:31:53.912Z,83085.81
2023-03-27T16:34:56.714Z,83105.56
2023-03-27T16:37:59.907Z,83119.81
2023-03-27T16:41:02.649Z,83115.06
2023-03-27T16:44:05.388Z,83122.91
2023-03-27T16:47:08.342Z,83119.75
2023-03-27T16:50:18.779Z,83130.03
2023-03-27T16:53:21.588Z,83133.19
2023-03-27T16:56:24.359Z,83122.91
2023-03-27T16:59:28.259Z,83143.41
2023-03-27T17:02:33.526Z,83140.28
2023-03-27T17:05:40.692Z,83146.56
2023-03-27T17:08:43.157Z,83148.16
2023-03-27T17:11:46.419Z,83178.19
2023-03-27T17:14:48.936Z,83182.94
2023-03-27T17:17:53.113Z,83192.34
2023-03-27T17:20:55.577Z,83187.63
2023-03-27T17:23:59.639Z,83189.25
2023-03-27T17:27:02.129Z,83212.88
2023-03-27T17:30:05.846Z,83219.97
2023-03-27T17:33:08.541Z,83220.78
2023-03-27T17:36:14.165Z,83239.72
2023-03-27T17:39:16.737Z,83249.19
2023-03-27T17:42:19.523Z,83231.84
2023-03-27T17:45:23.791Z,83236.59
2023-03-27T17:48:26.634Z,83227.09
2023-03-27T17:51:29.072Z,83247.63
2023-03-27T17:54:31.799Z,83250.78
2023-03-27T17:57:37.911Z,83274.47
2023-03-27T18:00:41.508Z,83279.22
2023-03-27T18:03:45.675Z,83290.25
2023-03-27T18:06:48.163Z,83296.63
2023-03-27T18:09:51.856Z,83304.47
2023-03-27T18:12:54.441Z,83309.19
2023-03-27T18:15:58.390Z,83322.63
2023-03-27T18:19:01.289Z,83317.88
2023-03-27T18:22:04.873Z,83322.63
2023-03-27T18:25:11.643Z,83329.72
2023-03-27T18:28:14.748Z,83339.19
2023-03-27T18:31:17.835Z,83334.47
2023-03-27T18:34:21.201Z,83340.75
2023-03-27T18:37:23.541Z,83345.50
2023-03-27T18:40:26.380Z,83331.34
2023-03-27T18:43:29.021Z,83344.72
2023-03-27T18:46:32.177Z,83354.19
2023-03-27T18:49:34.579Z,83351.84
2023-03-27T18:52:37.481Z,83361.31
2023-03-27T18:55:39.847Z,83359.75
2023-03-27T18:58:42.936Z,83375.50
2023-03-27T19:01:45.366Z,83369.19
2023-03-27T19:04:48.174Z,83369.22
2023-03-27T19:07:51.151Z,83373.97
2023-03-27T19:10:56.004Z,83372.34
2023-03-27T19:14:00.214Z,83381.03
2023-03-27T19:17:05.472Z,83391.28
2023-03-27T19:20:16.319Z,83400.75
2023-03-27T19:23:19.182Z,83397.59
2023-03-27T19:26:22.131Z,83405.47
2023-03-27T19:29:24.862Z,83408.66
2023-03-27T19:32:27.362Z,83430.75
2023-03-27T19:35:30.461Z,83422.84
2023-03-27T19:38:33.960Z,83418.16
2023-03-27T19:41:37.058Z,83423.66
2023-03-27T19:44:39.681Z,83426.03
2023-03-27T19:47:43.630Z,83433.91
2023-03-27T19:50:46.278Z,83449.69
2023-03-27T19:53:49.842Z,83451.28
2023-03-27T19:56:55.203Z,83450.47
2023-03-27T19:59:57.970Z,83440.25
2023-03-27T20:03:01.807Z,83451.25
2023-03-27T20:06:13.385Z,83458.41
2023-03-27T20:09:17.573Z,83457.62
2023-03-27T20:12:21.295Z,83458.38
2023-03-27T20:15:23.790Z,83467.84
2023-03-27T20:18:32.652Z,83462.31
2023-03-27T20:21:39.144Z,83457.56
2023-03-27T20:24:42.091Z,83449.69
2023-03-27T20:27:44.637Z,83454.41
2023-03-27T20:30:48.554Z,83460.75
2023-03-27T20:33:53.194Z,83468.63
2023-03-27T20:36:58.909Z,83468.66
2023-03-27T20:40:07.165Z,83474.94
2023-03-27T20:43:10.895Z,83484.41
2023-03-27T20:46:14.363Z,83488.34
2023-03-27T20:52:30.114Z,83491.53
2023-03-27T20:55:37.565Z,83490.72
2023-03-27T20:58:48.605Z,83501.78
2023-03-27T21:01:51.321Z,83506.50
2023-03-27T21:04:53.761Z,83514.41
2023-03-27T21:07:56.650Z,83512.00
2023-03-27T21:10:59.054Z,83509.69
2023-03-27T21:14:02.413Z,83509.66
2023-03-27T21:17:05.721Z,83520.72
2023-03-27T21:20:10.362Z,83531.81
2023-03-27T21:23:12.758Z,83522.28
2023-03-27T21:26:15.614Z,83521.50
2023-03-27T21:29:18.382Z,83531.00
2023-03-27T21:32:21.176Z,83531.75
2023-03-27T21:35:23.873Z,83542.84
2023-03-27T21:38:27.631Z,83540.41
2023-03-27T21:41:31.952Z,83547.53
2023-03-27T21:44:34.706Z,83544.41
2023-03-27T21:47:47.259Z,83538.88
2023-03-27T21:50:50.461Z,83557.78
2023-03-27T21:53:53.352Z,83563.28
2023-03-27T21:56:56.317Z,83563.31
2023-03-27T21:59:58.708Z,83569.63
2023-03-27T22:03:01.623Z,83579.09
2023-03-27T22:06:12.404Z,83574.38
2023-03-27T22:09:17.046Z,83582.28
2023-03-27T22:12:20.529Z,83584.63
2023-03-27T22:15:25.409Z,83585.38
2023-03-27T22:18:28.172Z,83594.91
2023-03-27T22:21:31.237Z,83601.22
2023-03-27T22:24:34.369Z,83602.78
2023-03-27T22:27:37.000Z,83601.19
2023-03-27T22:30:41.752Z,83609.09
2023-03-27T22:33:44.748Z,83624.06
2023-03-27T22:36:47.607Z,83618.56
2023-03-27T22:39:49.998Z,83617.03
2023-03-27T22:42:52.671Z,83620.16
2023-03-27T22:45:55.358Z,83620.13
2023-03-27T22:48:58.661Z,83624.88
2023-03-27T22:52:02.024Z,83634.34
2023-03-27T22:55:05.395Z,83638.31
2023-03-27T22:58:07.797Z,83645.37
2023-03-27T23:01:11.308Z,83648.56
2023-03-27T23:04:13.664Z,83654.84
2023-03-27T23:07:16.368Z,83656.44
2023-03-27T23:10:18.981Z,83665.91
2023-03-27T23:13:23.248Z,83669.06
2023-03-27T23:16:25.778Z,83673.78
2023-03-27T23:19:28.658Z,83675.34
2023-03-27T23:22:31.233Z,83681.72
2023-03-27T23:25:34.200Z,83680.88
2023-03-27T23:28:39.173Z,83690.34
2023-03-27T23:31:41.889Z,83695.88
2023-03-27T23:34:44.406Z,83699.03
2023-03-27T23:37:47.788Z,83691.13
2023-03-27T23:40:57.001Z,83705.34
2023-03-27T23:43:59.757Z,83708.47
2023-03-27T23:47:02.318Z,83716.38
2023-03-27T23:50:05.620Z,83716.38
2023-03-27T23:53:08.043Z,83726.63
2023-03-27T23:56:11.546Z,83738.50
2023-03-27T23:59:14.465Z,83736.09
